createdAt,value
2019-04-27T00:01:48.482Z,8.08
2019-04-27T00:07:34.858Z,8.00
2019-04-27T00:10:14.899Z,8.02
2019-04-27T00:12:46.056Z,8.05
2019-04-27T00:15:31.133Z,8.08
2019-04-27T00:18:09.417Z,8.00
2019-04-27T00:21:17.862Z,7.88
2019-04-27T00:23:48.671Z,7.93
2019-04-27T00:26:19.149Z,7.92
2019-04-27T00:28:53.647Z,8.00
2019-04-27T00:31:24.289Z,8.02
2019-04-27T00:33:54.691Z,8.01
2019-04-27T00:36:32.878Z,8.01
2019-04-27T00:39:20.086Z,8.06
2019-04-27T00:41:53.157Z,8.06
2019-04-27T00:44:24.653Z,8.05
2019-04-27T00:46:55.189Z,8.05
2019-04-27T00:49:25.797Z,8.02
2019-04-27T00:51:56.259Z,8.06
2019-04-27T00:54:28.187Z,8.04
2019-04-27T00:57:18.629Z,8.10
2019-04-27T01:00:14.572Z,8.05
2019-04-27T01:02:53.608Z,8.03
2019-04-27T01:05:26.668Z,8.05
2019-04-27T01:07:57.251Z,8.07
2019-04-27T01:10:28.070Z,8.12
2019-04-27T01:12:58.499Z,8.10
2019-04-27T01:15:29.024Z,8.10
2019-04-27T01:18:11.552Z,8.12
2019-04-27T01:20:31.587Z,8.14
2019-04-27T01:23:02.334Z,8.15
2019-04-27T01:26:03.008Z,8.13
2019-04-27T01:28:43.245Z,8.07
2019-04-27T01:31:14.641Z,8.03
2019-04-27T01:33:45.069Z,8.09
2019-04-27T01:36:15.995Z,8.08
2019-04-27T01:38:46.454Z,8.05
2019-04-27T01:41:16.862Z,8.15
2019-04-27T01:43:48.934Z,8.13
2019-04-27T01:46:19.711Z,8.17
2019-04-27T01:48:50.156Z,8.20
2019-04-27T01:51:21.154Z,8.21
2019-04-27T01:53:51.717Z,8.16
2019-04-27T01:56:22.134Z,8.14
2019-04-27T01:58:52.694Z,8.11
2019-04-27T02:01:48.995Z,8.18
2019-04-27T02:04:32.137Z,8.27
2019-04-27T02:07:04.905Z,8.27
2019-04-27T02:09:35.394Z,8.28
2019-04-27T02:12:05.896Z,8.24
2019-04-27T02:14:38.956Z,8.26
2019-04-27T02:17:12.195Z,8.31
2019-04-27T02:19:49.371Z,8.30
2019-04-27T02:22:21.360Z,8.31
2019-04-27T02:24:51.850Z,8.27
2019-04-27T02:27:24.086Z,8.31
2019-04-27T02:30:17.040Z,8.30
2019-04-27T02:33:12.697Z,8.28
2019-04-27T02:35:42.361Z,8.26
2019-04-27T02:38:12.785Z,8.30
2019-04-27T02:40:53.290Z,8.27
2019-04-27T02:43:29.897Z,8.26
2019-04-27T02:46:00.605Z,8.30
2019-04-27T02:48:31.375Z,8.24
2019-04-27T02:51:04.646Z,8.22
2019-04-27T02:53:54.234Z,8.23
2019-04-27T02:56:24.851Z,8.21
2019-04-27T02:58:56.314Z,8.23
2019-04-27T03:01:30.534Z,8.27
2019-04-27T03:04:01.290Z,8.24
2019-04-27T03:06:31.838Z,8.23
2019-04-27T03:09:02.365Z,8.18
2019-04-27T03:11:34.623Z,8.14
2019-04-27T03:14:36.482Z,8.11
2019-04-27T03:17:27.101Z,8.13
2019-04-27T03:20:10.495Z,8.12
2019-04-27T03:22:43.097Z,8.19
2019-04-27T03:25:32.794Z,8.29
2019-04-27T03:28:21.432Z,8.31
2019-04-27T03:30:52.615Z,8.31
2019-04-27T03:33:23.309Z,8.28
2019-04-27T03:35:54.091Z,8.31
2019-04-27T03:38:24.631Z,8.32
2019-04-27T03:40:55.129Z,8.34
2019-04-27T03:43:25.906Z,8.35
2019-04-27T03:45:56.418Z,8.36
2019-04-27T03:48:29.409Z,8.39
2019-04-27T03:51:15.878Z,8.37
2019-04-27T03:54:14.318Z,8.34
2019-04-27T03:56:51.241Z,8.35
2019-04-27T03:59:46.357Z,8.30
2019-04-27T04:02:19.673Z,8.34
2019-04-27T04:04:51.558Z,8.39
2019-04-27T04:07:22.002Z,8.41
2019-04-27T04:09:52.662Z,8.41
2019-04-27T04:12:49.861Z,8.39
2019-04-27T04:15:29.897Z,8.42
2019-04-27T04:18:00.577Z,8.44
2019-04-27T04:20:30.996Z,8.42
2019-04-27T04:23:03.331Z,8.39
2019-04-27T04:25:36.704Z,8.37
2019-04-27T04:28:23.827Z,8.36
2019-04-27T04:31:00.670Z,8.37
2019-04-27T04:33:34.306Z,8.36
2019-04-27T04:36:04.790Z,8.33
2019-04-27T04:38:35.235Z,8.33
2019-04-27T04:41:09.622Z,8.35
2019-04-27T04:43:55.422Z,8.37
2019-04-27T04:46:40.000Z,8.45
2019-04-27T04:49:10.748Z,8.52
2019-04-27T04:51:41.212Z,8.52
2019-04-27T04:54:11.674Z,8.55
2019-04-27T04:56:49.422Z,8.58
2019-04-27T04:59:21.128Z,8.67
2019-04-27T05:01:52.253Z,8.67
2019-04-27T05:04:22.764Z,8.67
2019-04-27T05:06:53.253Z,8.77
2019-04-27T05:09:23.676Z,8.85
2019-04-27T05:11:54.602Z,8.92
2019-04-27T05:14:25.163Z,8.93
2019-04-27T05:16:56.136Z,8.94
2019-04-27T05:19:29.880Z,8.91
2019-04-27T05:22:01.051Z,8.93
2019-04-27T05:24:32.887Z,9.02
2019-04-27T05:27:03.412Z,9.11
2019-04-27T05:29:33.857Z,9.16
2019-04-27T05:32:06.266Z,9.19
2019-04-27T05:34:36.885Z,9.18
2019-04-27T05:37:08.946Z,9.21
2019-04-27T05:39:44.047Z,9.25
2019-04-27T05:42:17.075Z,9.31
2019-04-27T05:45:22.712Z,9.38
2019-04-27T05:48:05.961Z,9.49
2019-04-27T05:50:43.083Z,9.55
2019-04-27T05:53:09.233Z,9.61
2019-04-27T05:55:39.719Z,9.74
2019-04-27T05:58:10.301Z,9.85
2019-04-27T06:00:42.270Z,9.80
2019-04-27T06:03:12.769Z,9.86
2019-04-27T06:05:43.666Z,9.94
2019-04-27T06:08:14.142Z,10.00
2019-04-27T06:10:44.609Z,10.00
2019-04-27T06:13:19.096Z,9.98
2019-04-27T06:15:50.062Z,9.94
2019-04-27T06:18:21.056Z,9.87
2019-04-27T06:20:55.683Z,9.86
2019-04-27T06:23:23.727Z,9.88
2019-04-27T06:25:54.298Z,9.73
2019-04-27T06:28:24.830Z,9.71
2019-04-27T06:30:55.313Z,9.63
2019-04-27T06:33:33.802Z,9.68
2019-04-27T06:36:01.880Z,9.77
2019-04-27T06:38:32.736Z,9.77
2019-04-27T06:41:10.094Z,9.87
2019-04-27T06:43:40.859Z,9.96
2019-04-27T06:46:14.468Z,9.92
2019-04-27T06:48:45.157Z,10.00
2019-04-27T06:51:15.613Z,10.06
2019-04-27T06:53:46.104Z,10.02
2019-04-27T06:56:21.146Z,10.09
2019-04-27T06:58:51.672Z,10.12
2019-04-27T07:01:22.425Z,10.12
2019-04-27T07:03:57.513Z,10.18
2019-04-27T07:06:30.945Z,10.24
2019-04-27T07:09:04.705Z,10.33
2019-04-27T07:11:39.387Z,10.40
2019-04-27T07:14:13.175Z,10.42
2019-04-27T07:16:44.085Z,10.56
2019-04-27T07:19:14.938Z,10.63
2019-04-27T07:21:52.819Z,10.72
2019-04-27T07:24:23.232Z,10.82
2019-04-27T07:26:54.090Z,10.96
2019-04-27T07:29:29.404Z,10.96
2019-04-27T07:32:00.162Z,10.98
2019-04-27T07:34:31.165Z,11.17
2019-04-27T07:37:01.601Z,11.28
2019-04-27T07:39:35.150Z,11.40
2019-04-27T07:42:10.111Z,11.58
2019-04-27T07:44:54.954Z,11.63
2019-04-27T07:47:27.440Z,11.53
2019-04-27T07:50:01.520Z,11.51
2019-04-27T07:52:33.334Z,11.54
2019-04-27T07:55:15.290Z,11.55
2019-04-27T07:57:49.442Z,11.66
2019-04-27T08:00:20.046Z,11.83
2019-04-27T08:02:55.773Z,11.96
2019-04-27T08:05:34.021Z,11.97
2019-04-27T08:08:08.840Z,12.08
2019-04-27T08:10:39.274Z,12.30
2019-04-27T08:13:11.691Z,12.21
2019-04-27T08:15:42.218Z,12.32
2019-04-27T08:18:13.352Z,12.33
2019-04-27T08:20:45.348Z,12.37
2019-04-27T08:23:16.370Z,12.48
2019-04-27T08:25:48.936Z,12.62
2019-04-27T08:28:48.620Z,12.66
2019-04-27T08:31:29.081Z,12.60
2019-04-27T08:34:08.616Z,12.53
2019-04-27T08:36:42.191Z,12.61
2019-04-27T08:39:13.840Z,12.59
2019-04-27T08:41:44.386Z,12.65
2019-04-27T08:44:15.096Z,12.47
2019-04-27T08:46:46.267Z,12.45
2019-04-27T08:49:18.552Z,12.46
2019-04-27T08:51:59.138Z,12.46
2019-04-27T08:54:24.385Z,12.57
2019-04-27T08:56:56.833Z,12.78
2019-04-27T08:59:30.411Z,12.89
2019-04-27T09:02:12.240Z,13.12
2019-04-27T09:04:44.976Z,13.06
2019-04-27T09:07:39.734Z,13.09
2019-04-27T09:10:16.743Z,13.18
2019-04-27T09:12:59.795Z,13.15
2019-04-27T09:15:53.370Z,13.14
2019-04-27T09:18:29.294Z,13.32
2019-04-27T09:21:10.601Z,13.30
2019-04-27T09:23:41.403Z,13.30
2019-04-27T09:26:12.180Z,13.26
2019-04-27T09:28:50.052Z,13.29
2019-04-27T09:31:23.495Z,13.52
2019-04-27T09:34:19.761Z,13.63
2019-04-27T09:36:56.664Z,13.76
2019-04-27T09:39:27.229Z,13.89
2019-04-27T09:41:57.898Z,13.85
2019-04-27T09:44:28.848Z,13.90
2019-04-27T09:46:59.307Z,14.11
2019-04-27T09:49:31.136Z,14.13
2019-04-27T09:52:06.299Z,14.14
2019-04-27T09:54:39.732Z,14.01
2019-04-27T09:57:16.036Z,14.06
2019-04-27T10:00:01.089Z,13.96
2019-04-27T10:02:41.199Z,13.86
2019-04-27T10:05:13.179Z,13.93
2019-04-27T10:07:47.615Z,14.07
2019-04-27T10:10:20.647Z,14.20
2019-04-27T10:12:56.773Z,14.05
2019-04-27T10:15:32.058Z,14.01
2019-04-27T10:18:08.234Z,13.82
2019-04-27T10:23:33.343Z,13.86
2019-04-27T10:26:17.328Z,13.97
2019-04-27T10:28:47.799Z,14.00
2019-04-27T10:31:25.086Z,14.19
2019-04-27T10:34:00.796Z,14.31
2019-04-27T10:36:43.317Z,14.55
2019-04-27T10:39:17.010Z,14.63
2019-04-27T10:41:49.249Z,14.70
2019-04-27T10:44:24.282Z,14.88
2019-04-27T10:46:54.762Z,15.04
2019-04-27T10:49:31.301Z,15.13
2019-04-27T10:52:08.982Z,15.39
2019-04-27T10:54:41.662Z,15.35
2019-04-27T10:57:12.667Z,15.32
2019-04-27T10:59:48.642Z,15.47
2019-04-27T11:02:19.317Z,15.42
2019-04-27T11:05:06.937Z,15.66
2019-04-27T11:07:39.033Z,15.86
2019-04-27T11:10:09.710Z,16.30
2019-04-27T11:12:43.262Z,16.69
2019-04-27T11:15:16.665Z,17.16
2019-04-27T11:17:52.030Z,17.64
2019-04-27T11:20:22.812Z,18.03
2019-04-27T11:23:12.156Z,18.46
2019-04-27T11:25:46.635Z,18.80
2019-04-27T11:28:19.756Z,19.08
2019-04-27T11:30:50.266Z,19.33
2019-04-27T11:33:22.291Z,19.35
2019-04-27T11:36:17.104Z,19.43
2019-04-27T11:38:57.486Z,19.14
2019-04-27T11:41:28.006Z,18.97
2019-04-27T11:44:03.855Z,19.23
2019-04-27T11:46:45.513Z,18.50
2019-04-27T11:49:18.983Z,18.07
2019-04-27T11:51:51.311Z,17.92
2019-04-27T11:54:21.806Z,18.68
2019-04-27T11:56:52.264Z,18.82
2019-04-27T11:59:23.818Z,18.82
2019-04-27T12:01:55.948Z,18.70
2019-04-27T12:04:57.125Z,18.33
2019-04-27T12:07:27.544Z,18.24
2019-04-27T12:09:58.027Z,18.09
2019-04-27T12:12:32.094Z,18.06
2019-04-27T12:15:05.792Z,17.70
2019-04-27T12:17:38.363Z,17.67
2019-04-27T12:20:09.078Z,17.21
2019-04-27T12:22:41.296Z,16.99
2019-04-27T12:25:11.878Z,16.99
2019-04-27T12:27:59.988Z,16.86
2019-04-27T12:33:36.166Z,16.81
2019-04-27T12:36:07.838Z,16.89
2019-04-27T12:38:41.312Z,16.79
2019-04-27T12:41:21.815Z,17.22
2019-04-27T12:43:53.774Z,17.46
2019-04-27T12:46:34.298Z,17.36
2019-04-27T12:49:09.329Z,17.04
2019-04-27T12:51:43.250Z,16.98
2019-04-27T12:54:46.461Z,16.87
2019-04-27T12:57:41.548Z,17.15
2019-04-27T13:00:37.320Z,17.19
2019-04-27T13:03:16.366Z,17.14
2019-04-27T13:05:49.655Z,17.15
2019-04-27T13:08:20.161Z,16.88
2019-04-27T13:10:50.636Z,16.56
2019-04-27T13:13:21.133Z,16.64
2019-04-27T13:15:52.003Z,16.56
2019-04-27T13:18:22.534Z,16.47
2019-04-27T13:20:53.067Z,16.49
2019-04-27T13:23:23.673Z,16.51
2019-04-27T13:25:58.326Z,16.57
2019-04-27T13:28:31.162Z,16.62
2019-04-27T13:31:01.317Z,16.52
2019-04-27T13:33:36.486Z,16.41
2019-04-27T13:36:10.139Z,16.25
2019-04-27T13:38:40.824Z,16.40
2019-04-27T13:41:27.845Z,16.79
2019-04-27T13:43:49.489Z,17.06
2019-04-27T13:46:33.577Z,16.83
2019-04-27T13:49:30.682Z,16.77
2019-04-27T13:52:19.936Z,16.59
2019-04-27T13:54:50.673Z,16.99
2019-04-27T13:57:24.136Z,17.52
2019-04-27T13:59:55.310Z,17.82
2019-04-27T14:02:30.206Z,17.88
2019-04-27T14:04:58.067Z,17.88
2019-04-27T14:07:29.237Z,17.75
2019-04-27T14:10:05.549Z,17.56
2019-04-27T14:12:36.029Z,17.24
2019-04-27T14:15:08.629Z,16.84
2019-04-27T14:17:39.495Z,16.74
2019-04-27T14:20:12.939Z,16.59
2019-04-27T14:22:49.041Z,16.38
2019-04-27T14:25:22.430Z,16.37
2019-04-27T14:27:53.867Z,16.21
2019-04-27T14:30:27.734Z,16.06
2019-04-27T14:33:05.141Z,16.07
2019-04-27T14:35:39.228Z,15.91
2019-04-27T14:38:09.722Z,16.01
2019-04-27T14:40:44.332Z,16.49
2019-04-27T14:43:15.143Z,16.59
2019-04-27T14:45:45.621Z,16.43
2019-04-27T14:48:16.064Z,16.23
2019-04-27T14:50:48.394Z,16.24
2019-04-27T14:53:22.633Z,16.30
2019-04-27T14:55:53.163Z,16.05
2019-04-27T14:58:26.180Z,15.65
2019-04-27T15:01:03.357Z,15.28
2019-04-27T15:03:33.937Z,15.13
2019-04-27T15:06:04.904Z,14.93
2019-04-27T15:08:55.786Z,14.89
2019-04-27T15:11:31.493Z,15.04
2019-04-27T15:14:04.271Z,15.01
2019-04-27T15:16:37.774Z,14.90
2019-04-27T15:19:25.606Z,14.72
2019-04-27T15:21:58.845Z,14.55
2019-04-27T15:24:31.280Z,14.36
2019-04-27T15:27:10.717Z,14.19
2019-04-27T15:30:11.396Z,14.05
2019-04-27T15:33:02.415Z,14.03
2019-04-27T15:35:43.871Z,13.90
2019-04-27T15:38:21.909Z,13.79
2019-04-27T15:41:17.552Z,13.49
2019-04-27T15:43:51.174Z,13.03
2019-04-27T15:46:22.129Z,12.68
2019-04-27T15:48:54.378Z,12.20
2019-04-27T15:51:33.605Z,11.56
2019-04-27T15:54:04.695Z,11.13
2019-04-27T15:56:35.540Z,10.92
2019-04-27T15:59:18.486Z,10.65
2019-04-27T16:01:52.333Z,10.47
2019-04-27T16:04:44.484Z,10.34
2019-04-27T16:07:18.180Z,10.16
2019-04-27T16:10:02.770Z,10.16
2019-04-27T16:12:38.984Z,10.02
2019-04-27T16:15:08.891Z,9.95
2019-04-27T16:17:43.986Z,10.05
2019-04-27T16:20:22.435Z,10.11
2019-04-27T16:22:50.748Z,10.04
2019-04-27T16:25:28.236Z,10.02
2019-04-27T16:27:57.822Z,9.92
2019-04-27T16:30:33.141Z,9.90
2019-04-27T16:33:05.255Z,9.87
2019-04-27T16:35:35.806Z,10.00
2019-04-27T16:38:34.666Z,9.85
2019-04-27T16:41:08.224Z,9.81
2019-04-27T16:43:39.605Z,9.68
2019-04-27T16:46:21.363Z,9.49
2019-04-27T16:48:59.221Z,9.28
2019-04-27T16:51:36.917Z,9.26
2019-04-27T16:54:13.001Z,9.18
2019-04-27T16:56:53.407Z,9.11
2019-04-27T16:59:44.217Z,9.03
2019-04-27T17:01:58.191Z,9.10
2019-04-27T17:04:29.080Z,9.10
2019-04-27T17:07:01.121Z,9.02
2019-04-27T17:09:42.128Z,9.00
2019-04-27T17:12:09.143Z,8.96
2019-04-27T17:14:59.009Z,9.01
2019-04-27T17:17:55.859Z,9.12
2019-04-27T17:20:39.243Z,9.16
2019-04-27T17:23:11.361Z,9.20
2019-04-27T17:25:44.477Z,9.21
2019-04-27T17:28:16.052Z,9.21
2019-04-27T17:30:46.870Z,9.27
2019-04-27T17:33:38.019Z,9.28
2019-04-27T17:36:12.198Z,9.31
2019-04-27T17:38:47.281Z,9.32
2019-04-27T17:41:23.246Z,9.32
2019-04-27T17:43:58.935Z,9.34
2019-04-27T17:46:42.730Z,9.28
2019-04-27T17:49:22.296Z,9.21
2019-04-27T17:51:52.973Z,9.26
2019-04-27T17:54:28.974Z,9.23
2019-04-27T17:57:00.896Z,9.27
2019-04-27T17:59:33.891Z,9.28
2019-04-27T18:02:13.361Z,9.31
2019-04-27T18:04:48.480Z,9.33
2019-04-27T18:07:19.470Z,9.24
2019-04-27T18:10:13.407Z,9.22
2019-04-27T18:12:50.141Z,9.26
2019-04-27T18:15:26.823Z,9.28
2019-04-27T18:18:14.757Z,9.35
2019-04-27T18:25:03.307Z,9.30
2019-04-27T18:27:54.131Z,9.30
2019-04-27T18:30:50.106Z,9.27
2019-04-27T18:33:21.080Z,9.23
2019-04-27T18:36:13.265Z,9.20
2019-04-27T18:38:45.308Z,9.18
2019-04-27T18:41:19.675Z,9.13
2019-04-27T18:43:53.459Z,9.07
2019-04-27T18:46:58.748Z,9.07
2019-04-27T18:49:40.721Z,9.06
2019-04-27T18:52:30.370Z,9.06
2019-04-27T18:55:01.120Z,9.12
2019-04-27T18:57:36.021Z,9.10
2019-04-27T19:00:08.243Z,9.13
2019-04-27T19:02:40.263Z,9.15
2019-04-27T19:05:12.928Z,9.13
2019-04-27T19:07:51.654Z,9.08
2019-04-27T19:10:22.182Z,9.10
2019-04-27T19:12:59.849Z,9.11
2019-04-27T19:15:29.896Z,9.06
2019-04-27T19:18:03.097Z,8.97
2019-04-27T19:20:40.350Z,8.93
2019-04-27T19:23:11.020Z,8.86
2019-04-27T19:25:49.181Z,8.68
2019-04-27T19:28:40.018Z,8.45
2019-04-27T19:31:24.431Z,8.31
2019-04-27T19:33:55.097Z,8.12
2019-04-27T19:36:35.782Z,8.03
2019-04-27T19:39:18.134Z,7.91
2019-04-27T19:42:11.743Z,7.91
2019-04-27T19:44:51.146Z,7.90
2019-04-27T19:47:29.830Z,7.94
2019-04-27T19:50:04.397Z,7.95
2019-04-27T19:52:38.966Z,7.97
2019-04-27T19:58:58.181Z,7.85
2019-04-27T20:01:34.827Z,7.87
2019-04-27T20:04:10.187Z,7.76
2019-04-27T20:06:44.020Z,7.69
2019-04-27T20:12:14.928Z,7.65
2019-04-27T20:14:59.328Z,7.72
2019-04-27T20:17:31.498Z,7.76
2019-04-27T20:20:09.914Z,7.81
2019-04-27T20:22:40.648Z,7.79
2019-04-27T20:25:21.663Z,7.80
2019-04-27T20:28:00.891Z,7.81
2019-04-27T20:30:35.119Z,7.75
2019-04-27T20:33:12.708Z,7.67
2019-04-27T20:35:55.598Z,7.55
2019-04-27T20:38:34.263Z,7.52
2019-04-27T20:41:08.665Z,7.48
2019-04-27T20:43:42.838Z,7.51
2019-04-27T20:46:22.489Z,7.54
2019-04-27T20:48:54.517Z,7.60
2019-04-27T20:51:52.361Z,7.63
2019-04-27T20:54:25.214Z,7.65
2019-04-27T20:56:58.232Z,7.60
2019-04-27T20:59:32.806Z,7.61
2019-04-27T21:02:24.147Z,7.58
2019-04-27T21:05:12.615Z,7.47
2019-04-27T21:07:56.447Z,7.35
2019-04-27T21:10:33.418Z,7.36
2019-04-27T21:13:04.355Z,7.33
2019-04-27T21:16:02.320Z,7.28
2019-04-27T21:18:36.085Z,7.27
2019-04-27T21:21:09.250Z,7.12
2019-04-27T21:24:06.303Z,7.09
2019-04-27T21:26:38.201Z,7.05
2019-04-27T21:29:11.565Z,7.05
2019-04-27T21:31:43.667Z,7.04
2019-04-27T21:34:47.505Z,7.05
2019-04-27T21:37:21.067Z,7.00
2019-04-27T21:40:11.810Z,6.91
2019-04-27T21:42:51.641Z,6.92
2019-04-27T21:45:22.625Z,6.97
2019-04-27T21:50:41.307Z,7.04
2019-04-27T21:53:26.852Z,7.07
2019-04-27T21:56:13.589Z,6.96
2019-04-27T21:58:44.412Z,6.93
2019-04-27T22:01:31.868Z,6.88
2019-04-27T22:04:34.862Z,6.87
2019-04-27T22:07:05.889Z,6.79
2019-04-27T22:09:36.358Z,6.62
2019-04-27T22:12:11.310Z,6.62
2019-04-27T22:14:42.907Z,6.63
2019-04-27T22:20:14.545Z,6.67
2019-04-27T22:22:49.003Z,6.66
2019-04-27T22:25:27.179Z,6.57
2019-04-27T22:27:57.699Z,6.59
2019-04-27T22:30:31.236Z,6.57
2019-04-27T22:33:02.665Z,6.65
2019-04-27T22:35:38.112Z,6.68
2019-04-27T22:38:09.550Z,6.60
2019-04-27T22:40:46.512Z,6.52
2019-04-27T22:43:35.225Z,6.46
2019-04-27T22:46:11.300Z,6.48
2019-04-27T22:48:42.185Z,6.48
2019-04-27T22:51:18.788Z,6.48
2019-04-27T22:53:51.148Z,6.34
2019-04-27T22:56:22.425Z,6.31
2019-04-27T22:59:11.915Z,6.29
2019-04-27T23:01:58.045Z,6.23
2019-04-27T23:04:33.550Z,6.18
2019-04-27T23:07:06.965Z,6.17
2019-04-27T23:09:37.414Z,6.18
2019-04-27T23:12:07.919Z,6.22
2019-04-27T23:14:46.127Z,6.29
2019-04-27T23:17:35.404Z,6.11
2019-04-27T23:20:06.126Z,6.09
2019-04-27T23:22:36.586Z,6.11
2019-04-27T23:25:11.325Z,6.12
2019-04-27T23:27:46.101Z,6.12
2019-04-27T23:30:23.096Z,6.15
2019-04-27T23:32:53.648Z,6.22
2019-04-27T23:35:24.482Z,6.28
2019-04-27T23:37:54.913Z,6.22
2019-04-27T23:40:25.372Z,6.24
2019-04-27T23:42:56.264Z,6.24
2019-04-27T23:45:26.908Z,6.21
2019-04-27T23:47:57.814Z,6.21
2019-04-27T23:50:31.378Z,6.20
2019-04-27T23:53:23.931Z,6.18
2019-04-27T23:55:54.389Z,6.18
2019-04-27T23:58:24.797Z,6.15
